LFQQ/LIL METAR and TAF weather

Enter ICAO airport designator
Station Type Date Time Source
LFQQ METAR 2019/02/16 17:00 UTC NOAA

LFQQ 161700Z AUTO 16003KT CAVOK 11/06 Q1024 NOSIG


Station Type Date Time Source
LFQQ Decoded METAR 2019/02/16 17:00 UTC NOAA

Lille, France (LFQQ) 50-34N 003-06E 52M
Feb 16, 2019 - 12:00 PM EST / 2019.02.16 1700 UTC
Wind: from the SSE (160 degrees) at 3 MPH (3 KT):0
Visibility: greater than 7 mile(s):0
Temperature: 51 F (11 C)
Dew Point: 42 F (6 C)
Relative Humidity: 71%
Pressure (altimeter): 30.24 in. Hg (1024 hPa)
ob: LFQQ 161700Z AUTO 16003KT CAVOK 11/06 Q1024 NOSIG
cycle: 17

Station Type Date Time Source
LFQQ TAF 2019/02/16 18:22 UTC NOAA

TAF LFQQ 161700Z 1618/1724 17005KT CAVOK
TEMPO 1700/1707 4000 BR
BECMG 1709/1712 17015KT


Example: see airport list